Heidelberg, Texas
Current Conditions -  °F | °C
As of 2:15 PM on Friday 31 Oct 2014 (Local Time) from KT65 Reporting Station
Broken Clouds Broken Clouds  
Wind Chill: 74°   Ceiling: 1200
Heat Index: 74°   Visibility: 7mi
Dew Point: 67°   Wind: 14mph
Humidity: 79%   Direction: 20°NNE
Pressure: 30.15"   Gusts: 21mph
Location:  26.1456°N, 97.91°W
Report Text: KT65 311915Z AUTO 02012G18KT 7SM BKN012 BKN019 23/19 A3015 RMK AO2 LTG DSNT SE T02330194
Loading
Personal Weather Stations






























Interactive Weather Map
Tropical Storm Tracking
New forecast layout! Learn more

10-Day Weather Forecast

Advertisements
Track Severe Weather on mobile